sensor_id;sensor_type;location;lat;lon;timestamp;P1;durP1;ratioP1;P2;durP2;ratioP2
70102;SDS011;57470;50.034;15.256;2022-11-10T00:00:07;14.05;;;4.30;;
70102;SDS011;57470;50.034;15.256;2022-11-10T00:02:34;11.07;;;3.72;;
70102;SDS011;57470;50.034;15.256;2022-11-10T00:04:59;12.97;;;5.03;;
70102;SDS011;57470;50.034;15.256;2022-11-10T00:07:25;8.70;;;3.53;;
70102;SDS011;57470;50.034;15.256;2022-11-10T00:09:51;7.00;;;2.90;;
70102;SDS011;57470;50.034;15.256;2022-11-10T00:12:17;15.93;;;4.28;;
70102;SDS011;57470;50.034;15.256;2022-11-10T00:14:43;14.07;;;3.53;;
70102;SDS011;57470;50.034;15.256;2022-11-10T00:17:27;10.50;;;3.17;;
70102;SDS011;57470;50.034;15.256;2022-11-10T00:19:53;16.50;;;4.83;;
70102;SDS011;57470;50.034;15.256;2022-11-10T00:22:18;18.17;;;4.82;;
70102;SDS011;57470;50.034;15.256;2022-11-10T00:24:43;13.37;;;3.20;;
70102;SDS011;57470;50.034;15.256;2022-11-10T00:27:09;11.63;;;3.77;;
70102;SDS011;57470;50.034;15.256;2022-11-10T00:29:35;12.05;;;4.32;;
70102;SDS011;57470;50.034;15.256;2022-11-10T00:32:00;11.70;;;3.53;;
70102;SDS011;57470;50.034;15.256;2022-11-10T00:34:25;11.40;;;4.23;;
70102;SDS011;57470;50.034;15.256;2022-11-10T00:36:51;11.27;;;3.37;;
70102;SDS011;57470;50.034;15.256;2022-11-10T00:39:16;9.37;;;4.53;;
70102;SDS011;57470;50.034;15.256;2022-11-10T00:41:42;8.18;;;3.58;;
70102;SDS011;57470;50.034;15.256;2022-11-10T00:44:07;11.27;;;3.80;;
70102;SDS011;57470;50.034;15.256;2022-11-10T00:46:32;11.67;;;3.93;;
70102;SDS011;57470;50.034;15.256;2022-11-10T00:48:58;10.17;;;3.43;;
70102;SDS011;57470;50.034;15.256;2022-11-10T00:51:25;14.83;;;4.57;;
70102;SDS011;57470;50.034;15.256;2022-11-10T00:53:51;10.25;;;3.22;;
70102;SDS011;57470;50.034;15.256;2022-11-10T00:56:17;13.45;;;4.65;;
70102;SDS011;57470;50.034;15.256;2022-11-10T00:58:44;18.10;;;4.13;;
70102;SDS011;57470;50.034;15.256;2022-11-10T01:01:09;11.30;;;3.88;;
70102;SDS011;57470;50.034;15.256;2022-11-10T01:03:36;14.32;;;5.13;;
70102;SDS011;57470;50.034;15.256;2022-11-10T01:06:04;7.83;;;3.17;;
70102;SDS011;57470;50.034;15.256;2022-11-10T01:08:31;10.90;;;3.80;;
70102;SDS011;57470;50.034;15.256;2022-11-10T01:11:00;12.43;;;3.87;;
70102;SDS011;57470;50.034;15.256;2022-11-10T01:13:26;10.02;;;4.55;;
70102;SDS011;57470;50.034;15.256;2022-11-10T01:15:52;13.40;;;4.57;;
70102;SDS011;57470;50.034;15.256;2022-11-10T01:18:17;14.37;;;4.03;;
70102;SDS011;57470;50.034;15.256;2022-11-10T01:20:42;11.70;;;4.10;;
70102;SDS011;57470;50.034;15.256;2022-11-10T01:23:08;11.83;;;4.73;;
70102;SDS011;57470;50.034;15.256;2022-11-10T01:25:34;13.63;;;5.10;;
70102;SDS011;57470;50.034;15.256;2022-11-10T01:27:59;11.30;;;4.50;;
70102;SDS011;57470;50.034;15.256;2022-11-10T01:30:25;10.43;;;4.03;;
70102;SDS011;57470;50.034;15.256;2022-11-10T01:32:50;11.27;;;4.75;;
70102;SDS011;57470;50.034;15.256;2022-11-10T01:35:16;7.80;;;3.17;;
70102;SDS011;57470;50.034;15.256;2022-11-10T01:37:41;16.13;;;2.87;;
70102;SDS011;57470;50.034;15.256;2022-11-10T01:40:07;11.67;;;4.47;;
70102;SDS011;57470;50.034;15.256;2022-11-10T01:42:52;10.00;;;4.15;;
70102;SDS011;57470;50.034;15.256;2022-11-10T01:47:55;14.43;;;4.13;;
70102;SDS011;57470;50.034;15.256;2022-11-10T01:50:26;10.82;;;3.83;;
70102;SDS011;57470;50.034;15.256;2022-11-10T01:53:01;13.37;;;3.63;;
70102;SDS011;57470;50.034;15.256;2022-11-10T01:55:29;13.00;;;3.70;;
70102;SDS011;57470;50.034;15.256;2022-11-10T01:57:56;7.63;;;3.20;;
70102;SDS011;57470;50.034;15.256;2022-11-10T02:00:22;13.93;;;5.17;;
70102;SDS011;57470;50.034;15.256;2022-11-10T02:05:16;11.65;;;4.10;;
70102;SDS011;57470;50.034;15.256;2022-11-10T02:07:41;18.90;;;2.77;;
70102;SDS011;57470;50.034;15.256;2022-11-10T02:10:15;15.43;;;4.40;;
70102;SDS011;57470;50.034;15.256;2022-11-10T02:12:42;10.48;;;3.20;;
70102;SDS011;57470;50.034;15.256;2022-11-10T02:15:09;11.82;;;4.20;;
70102;SDS011;57470;50.034;15.256;2022-11-10T02:17:37;8.70;;;3.28;;
70102;SDS011;57470;50.034;15.256;2022-11-10T02:20:04;12.20;;;2.83;;
70102;SDS011;57470;50.034;15.256;2022-11-10T02:22:32;13.27;;;4.07;;
70102;SDS011;57470;50.034;15.256;2022-11-10T02:24:58;11.50;;;3.85;;
70102;SDS011;57470;50.034;15.256;2022-11-10T02:27:23;10.07;;;4.17;;
70102;SDS011;57470;50.034;15.256;2022-11-10T02:29:49;12.73;;;4.83;;
70102;SDS011;57470;50.034;15.256;2022-11-10T02:32:14;12.67;;;4.00;;
70102;SDS011;57470;50.034;15.256;2022-11-10T02:34:40;8.43;;;3.33;;
70102;SDS011;57470;50.034;15.256;2022-11-10T02:37:06;10.43;;;4.10;;
70102;SDS011;57470;50.034;15.256;2022-11-10T02:39:31;12.83;;;3.93;;
70102;SDS011;57470;50.034;15.256;2022-11-10T02:41:56;10.80;;;3.47;;
70102;SDS011;57470;50.034;15.256;2022-11-10T02:44:22;13.17;;;4.47;;
70102;SDS011;57470;50.034;15.256;2022-11-10T02:46:49;14.30;;;5.00;;
70102;SDS011;57470;50.034;15.256;2022-11-10T02:49:15;12.48;;;3.90;;
70102;SDS011;57470;50.034;15.256;2022-11-10T02:51:42;10.57;;;3.08;;
70102;SDS011;57470;50.034;15.256;2022-11-10T02:54:08;9.27;;;4.57;;
70102;SDS011;57470;50.034;15.256;2022-11-10T02:56:35;11.55;;;4.47;;
70102;SDS011;57470;50.034;15.256;2022-11-10T02:59:01;8.40;;;4.60;;
70102;SDS011;57470;50.034;15.256;2022-11-10T03:01:29;11.57;;;4.18;;
70102;SDS011;57470;50.034;15.256;2022-11-10T03:03:55;11.82;;;4.03;;
70102;SDS011;57470;50.034;15.256;2022-11-10T03:06:22;11.50;;;3.90;;
70102;SDS011;57470;50.034;15.256;2022-11-10T03:08:47;18.30;;;4.20;;
70102;SDS011;57470;50.034;15.256;2022-11-10T03:11:13;10.27;;;4.47;;
70102;SDS011;57470;50.034;15.256;2022-11-10T03:13:38;9.50;;;4.10;;
70102;SDS011;57470;50.034;15.256;2022-11-10T03:16:04;12.07;;;3.93;;
70102;SDS011;57470;50.034;15.256;2022-11-10T03:18:29;10.97;;;4.27;;
70102;SDS011;57470;50.034;15.256;2022-11-10T03:20:54;10.17;;;2.83;;
70102;SDS011;57470;50.034;15.256;2022-11-10T03:23:20;10.85;;;4.70;;
70102;SDS011;57470;50.034;15.256;2022-11-10T03:25:45;9.53;;;2.93;;
70102;SDS011;57470;50.034;15.256;2022-11-10T03:28:11;11.57;;;4.57;;
70102;SDS011;57470;50.034;15.256;2022-11-10T03:30:37;8.48;;;3.95;;
70102;SDS011;57470;50.034;15.256;2022-11-10T03:33:03;12.13;;;4.20;;
70102;SDS011;57470;50.034;15.256;2022-11-10T03:35:29;9.23;;;2.90;;
70102;SDS011;57470;50.034;15.256;2022-11-10T03:37:54;13.83;;;4.23;;
70102;SDS011;57470;50.034;15.256;2022-11-10T03:40:19;13.23;;;4.18;;
70102;SDS011;57470;50.034;15.256;2022-11-10T03:42:45;9.27;;;3.07;;
70102;SDS011;57470;50.034;15.256;2022-11-10T03:45:11;17.63;;;5.30;;
70102;SDS011;57470;50.034;15.256;2022-11-10T03:47:38;10.30;;;3.70;;
70102;SDS011;57470;50.034;15.256;2022-11-10T03:50:04;12.10;;;4.25;;
70102;SDS011;57470;50.034;15.256;2022-11-10T03:52:30;11.60;;;4.07;;
70102;SDS011;57470;50.034;15.256;2022-11-10T03:54:56;11.68;;;4.88;;
70102;SDS011;57470;50.034;15.256;2022-11-10T03:57:21;9.57;;;2.97;;
70102;SDS011;57470;50.034;15.256;2022-11-10T03:59:47;12.30;;;4.83;;
70102;SDS011;57470;50.034;15.256;2022-11-10T04:02:12;12.05;;;3.45;;
70102;SDS011;57470;50.034;15.256;2022-11-10T04:04:38;12.30;;;5.00;;
70102;SDS011;57470;50.034;15.256;2022-11-10T04:07:21;8.90;;;2.45;;
70102;SDS011;57470;50.034;15.256;2022-11-10T04:10:05;12.83;;;3.90;;
70102;SDS011;57470;50.034;15.256;2022-11-10T04:12:31;11.93;;;3.97;;
70102;SDS011;57470;50.034;15.256;2022-11-10T04:15:15;11.07;;;4.13;;
70102;SDS011;57470;50.034;15.256;2022-11-10T04:17:59;8.05;;;2.83;;
70102;SDS011;57470;50.034;15.256;2022-11-10T04:20:48;7.97;;;3.15;;
70102;SDS011;57470;50.034;15.256;2022-11-10T04:23:13;12.40;;;4.07;;
70102;SDS011;57470;50.034;15.256;2022-11-10T04:28:40;11.90;;;3.00;;
70102;SDS011;57470;50.034;15.256;2022-11-10T04:31:06;12.93;;;3.72;;
70102;SDS011;57470;50.034;15.256;2022-11-10T04:33:32;7.63;;;2.67;;
70102;SDS011;57470;50.034;15.256;2022-11-10T04:35:57;10.27;;;2.97;;
70102;SDS011;57470;50.034;15.256;2022-11-10T04:38:22;13.47;;;4.00;;
70102;SDS011;57470;50.034;15.256;2022-11-10T04:40:48;12.87;;;4.17;;
70102;SDS011;57470;50.034;15.256;2022-11-10T04:43:13;9.73;;;3.27;;
70102;SDS011;57470;50.034;15.256;2022-11-10T04:45:39;9.53;;;2.83;;
70102;SDS011;57470;50.034;15.256;2022-11-10T04:48:04;12.45;;;4.20;;
70102;SDS011;57470;50.034;15.256;2022-11-10T04:50:30;10.30;;;3.50;;
70102;SDS011;57470;50.034;15.256;2022-11-10T04:52:55;11.37;;;4.13;;
70102;SDS011;57470;50.034;15.256;2022-11-10T04:55:21;16.93;;;5.70;;
70102;SDS011;57470;50.034;15.256;2022-11-10T04:57:46;15.70;;;4.27;;
70102;SDS011;57470;50.034;15.256;2022-11-10T05:00:12;9.80;;;3.77;;
70102;SDS011;57470;50.034;15.256;2022-11-10T05:02:37;8.50;;;3.33;;
70102;SDS011;57470;50.034;15.256;2022-11-10T05:05:03;10.73;;;3.95;;
70102;SDS011;57470;50.034;15.256;2022-11-10T05:07:28;9.97;;;2.87;;
70102;SDS011;57470;50.034;15.256;2022-11-10T05:09:54;8.63;;;2.73;;
70102;SDS011;57470;50.034;15.256;2022-11-10T05:12:19;9.63;;;3.93;;
70102;SDS011;57470;50.034;15.256;2022-11-10T05:14:45;12.05;;;3.38;;
70102;SDS011;57470;50.034;15.256;2022-11-10T05:17:10;6.17;;;2.43;;
70102;SDS011;57470;50.034;15.256;2022-11-10T05:19:36;11.30;;;3.93;;
70102;SDS011;57470;50.034;15.256;2022-11-10T05:22:01;7.00;;;2.60;;
70102;SDS011;57470;50.034;15.256;2022-11-10T05:24:26;11.02;;;3.08;;
70102;SDS011;57470;50.034;15.256;2022-11-10T05:26:52;10.33;;;3.50;;
70102;SDS011;57470;50.034;15.256;2022-11-10T05:29:17;8.77;;;2.80;;
70102;SDS011;57470;50.034;15.256;2022-11-10T05:31:43;8.43;;;3.75;;
70102;SDS011;57470;50.034;15.256;2022-11-10T05:34:08;6.63;;;2.60;;
70102;SDS011;57470;50.034;15.256;2022-11-10T05:36:34;8.50;;;3.30;;
70102;SDS011;57470;50.034;15.256;2022-11-10T05:38:59;7.60;;;2.60;;
70102;SDS011;57470;50.034;15.256;2022-11-10T05:41:24;9.53;;;3.10;;
70102;SDS011;57470;50.034;15.256;2022-11-10T05:43:50;7.20;;;2.55;;
70102;SDS011;57470;50.034;15.256;2022-11-10T05:46:15;7.00;;;2.77;;
70102;SDS011;57470;50.034;15.256;2022-11-10T05:48:41;9.37;;;2.90;;
70102;SDS011;57470;50.034;15.256;2022-11-10T05:51:06;6.57;;;2.50;;
70102;SDS011;57470;50.034;15.256;2022-11-10T05:53:31;8.77;;;2.90;;
70102;SDS011;57470;50.034;15.256;2022-11-10T05:55:57;6.80;;;2.87;;
70102;SDS011;57470;50.034;15.256;2022-11-10T05:58:22;6.93;;;3.20;;
70102;SDS011;57470;50.034;15.256;2022-11-10T06:00:48;7.68;;;2.72;;
70102;SDS011;57470;50.034;15.256;2022-11-10T06:03:14;7.03;;;2.67;;
70102;SDS011;57470;50.034;15.256;2022-11-10T06:05:41;11.23;;;3.38;;
70102;SDS011;57470;50.034;15.256;2022-11-10T06:08:06;7.20;;;2.50;;
70102;SDS011;57470;50.034;15.256;2022-11-10T06:10:32;7.53;;;2.53;;
70102;SDS011;57470;50.034;15.256;2022-11-10T06:12:59;7.20;;;2.35;;
70102;SDS011;57470;50.034;15.256;2022-11-10T06:15:24;7.45;;;2.28;;
70102;SDS011;57470;50.034;15.256;2022-11-10T06:17:50;7.77;;;2.87;;
70102;SDS011;57470;50.034;15.256;2022-11-10T06:20:16;6.25;;;2.53;;
70102;SDS011;57470;50.034;15.256;2022-11-10T06:22:42;6.43;;;2.45;;
70102;SDS011;57470;50.034;15.256;2022-11-10T06:25:08;10.13;;;2.97;;
70102;SDS011;57470;50.034;15.256;2022-11-10T06:27:35;8.52;;;2.42;;
70102;SDS011;57470;50.034;15.256;2022-11-10T06:30:00;8.13;;;3.83;;
70102;SDS011;57470;50.034;15.256;2022-11-10T06:32:26;15.30;;;3.97;;
70102;SDS011;57470;50.034;15.256;2022-11-10T06:34:51;8.53;;;3.00;;
70102;SDS011;57470;50.034;15.256;2022-11-10T06:37:17;7.50;;;2.90;;
70102;SDS011;57470;50.034;15.256;2022-11-10T06:39:42;6.13;;;2.57;;
70102;SDS011;57470;50.034;15.256;2022-11-10T06:42:07;9.02;;;3.75;;
70102;SDS011;57470;50.034;15.256;2022-11-10T06:44:33;8.20;;;3.27;;
70102;SDS011;57470;50.034;15.256;2022-11-10T06:46:58;9.10;;;2.60;;
70102;SDS011;57470;50.034;15.256;2022-11-10T06:49:24;13.40;;;3.67;;
70102;SDS011;57470;50.034;15.256;2022-11-10T06:51:50;10.83;;;4.23;;
70102;SDS011;57470;50.034;15.256;2022-11-10T06:54:16;8.68;;;2.85;;
70102;SDS011;57470;50.034;15.256;2022-11-10T06:56:41;7.60;;;2.97;;
70102;SDS011;57470;50.034;15.256;2022-11-10T06:59:06;9.10;;;3.43;;
70102;SDS011;57470;50.034;15.256;2022-11-10T07:01:32;10.88;;;3.40;;
70102;SDS011;57470;50.034;15.256;2022-11-10T07:03:57;9.07;;;3.37;;
70102;SDS011;57470;50.034;15.256;2022-11-10T07:06:22;8.87;;;3.17;;
70102;SDS011;57470;50.034;15.256;2022-11-10T07:08:48;11.63;;;3.97;;
70102;SDS011;57470;50.034;15.256;2022-11-10T07:11:14;9.70;;;3.22;;
70102;SDS011;57470;50.034;15.256;2022-11-10T07:13:39;7.47;;;2.47;;
70102;SDS011;57470;50.034;15.256;2022-11-10T07:16:05;6.37;;;2.77;;
70102;SDS011;57470;50.034;15.256;2022-11-10T07:18:32;7.63;;;3.15;;
70102;SDS011;57470;50.034;15.256;2022-11-10T07:21:00;18.70;;;3.78;;
70102;SDS011;57470;50.034;15.256;2022-11-10T07:23:26;19.27;;;2.70;;
70102;SDS011;57470;50.034;15.256;2022-11-10T07:25:52;8.13;;;3.15;;
70102;SDS011;57470;50.034;15.256;2022-11-10T07:28:17;10.63;;;3.17;;
70102;SDS011;57470;50.034;15.256;2022-11-10T07:30:42;8.03;;;2.77;;
70102;SDS011;57470;50.034;15.256;2022-11-10T07:33:09;7.17;;;2.30;;
70102;SDS011;57470;50.034;15.256;2022-11-10T07:35:36;7.30;;;2.83;;
70102;SDS011;57470;50.034;15.256;2022-11-10T07:38:05;4.63;;;1.73;;
70102;SDS011;57470;50.034;15.256;2022-11-10T07:40:32;8.30;;;2.15;;
70102;SDS011;57470;50.034;15.256;2022-11-10T07:42:58;8.82;;;3.22;;
70102;SDS011;57470;50.034;15.256;2022-11-10T07:45:24;10.67;;;2.80;;
70102;SDS011;57470;50.034;15.256;2022-11-10T07:47:50;7.75;;;2.83;;
70102;SDS011;57470;50.034;15.256;2022-11-10T07:50:16;9.70;;;2.67;;
70102;SDS011;57470;50.034;15.256;2022-11-10T07:52:42;10.38;;;2.97;;
70102;SDS011;57470;50.034;15.256;2022-11-10T07:55:08;6.10;;;2.83;;
70102;SDS011;57470;50.034;15.256;2022-11-10T07:57:33;11.57;;;2.67;;
70102;SDS011;57470;50.034;15.256;2022-11-10T07:59:58;7.70;;;2.70;;
70102;SDS011;57470;50.034;15.256;2022-11-10T08:02:24;7.27;;;2.83;;
70102;SDS011;57470;50.034;15.256;2022-11-10T08:04:50;9.10;;;2.42;;
70102;SDS011;57470;50.034;15.256;2022-11-10T08:07:16;6.37;;;2.73;;
70102;SDS011;57470;50.034;15.256;2022-11-10T08:09:41;8.10;;;3.17;;
70102;SDS011;57470;50.034;15.256;2022-11-10T08:12:07;8.67;;;3.33;;
70102;SDS011;57470;50.034;15.256;2022-11-10T08:14:32;13.47;;;3.90;;
70102;SDS011;57470;50.034;15.256;2022-11-10T08:16:58;7.10;;;2.70;;
70102;SDS011;57470;50.034;15.256;2022-11-10T08:19:23;10.20;;;4.20;;
70102;SDS011;57470;50.034;15.256;2022-11-10T08:21:48;10.32;;;2.85;;
70102;SDS011;57470;50.034;15.256;2022-11-10T08:24:14;10.80;;;4.43;;
70102;SDS011;57470;50.034;15.256;2022-11-10T08:26:39;8.57;;;3.43;;
70102;SDS011;57470;50.034;15.256;2022-11-10T08:29:05;8.47;;;2.50;;
70102;SDS011;57470;50.034;15.256;2022-11-10T08:31:33;9.07;;;3.28;;
70102;SDS011;57470;50.034;15.256;2022-11-10T08:33:59;8.17;;;3.20;;
70102;SDS011;57470;50.034;15.256;2022-11-10T08:36:24;9.77;;;3.75;;
70102;SDS011;57470;50.034;15.256;2022-11-10T08:38:50;8.47;;;3.20;;
70102;SDS011;57470;50.034;15.256;2022-11-10T08:41:15;8.80;;;4.07;;
70102;SDS011;57470;50.034;15.256;2022-11-10T08:43:41;8.00;;;2.80;;
70102;SDS011;57470;50.034;15.256;2022-11-10T08:46:07;11.07;;;3.97;;
70102;SDS011;57470;50.034;15.256;2022-11-10T08:48:32;7.97;;;2.28;;
70102;SDS011;57470;50.034;15.256;2022-11-10T08:50:58;9.57;;;3.03;;
70102;SDS011;57470;50.034;15.256;2022-11-10T08:53:25;7.97;;;2.97;;
70102;SDS011;57470;50.034;15.256;2022-11-10T08:55:50;8.77;;;2.37;;
70102;SDS011;57470;50.034;15.256;2022-11-10T08:58:21;9.52;;;2.40;;
70102;SDS011;57470;50.034;15.256;2022-11-10T09:00:48;6.77;;;2.37;;
70102;SDS011;57470;50.034;15.256;2022-11-10T09:05:43;11.73;;;3.05;;
70102;SDS011;57470;50.034;15.256;2022-11-10T09:08:10;6.15;;;1.75;;
70102;SDS011;57470;50.034;15.256;2022-11-10T09:10:36;5.37;;;1.53;;
70102;SDS011;57470;50.034;15.256;2022-11-10T09:13:07;4.93;;;1.70;;
70102;SDS011;57470;50.034;15.256;2022-11-10T09:15:33;10.32;;;2.95;;
70102;SDS011;57470;50.034;15.256;2022-11-10T09:18:00;10.03;;;2.53;;
70102;SDS011;57470;50.034;15.256;2022-11-10T09:20:27;8.27;;;2.97;;
70102;SDS011;57470;50.034;15.256;2022-11-10T09:22:54;11.95;;;3.25;;
70102;SDS011;57470;50.034;15.256;2022-11-10T09:25:19;8.13;;;2.67;;
70102;SDS011;57470;50.034;15.256;2022-11-10T09:27:45;10.93;;;2.87;;
70102;SDS011;57470;50.034;15.256;2022-11-10T09:30:11;12.90;;;3.50;;
70102;SDS011;57470;50.034;15.256;2022-11-10T09:32:36;6.57;;;2.67;;
70102;SDS011;57470;50.034;15.256;2022-11-10T09:35:02;10.57;;;3.77;;
70102;SDS011;57470;50.034;15.256;2022-11-10T09:37:28;10.32;;;3.72;;
70102;SDS011;57470;50.034;15.256;2022-11-10T09:39:54;9.57;;;3.57;;
70102;SDS011;57470;50.034;15.256;2022-11-10T09:44:56;4.90;;;1.53;;
70102;SDS011;57470;50.034;15.256;2022-11-10T09:47:32;11.38;;;2.88;;
70102;SDS011;57470;50.034;15.256;2022-11-10T09:50:03;7.18;;;3.25;;
70102;SDS011;57470;50.034;15.256;2022-11-10T09:52:31;8.65;;;2.17;;
70102;SDS011;57470;50.034;15.256;2022-11-10T09:55:04;10.07;;;3.47;;
70102;SDS011;57470;50.034;15.256;2022-11-10T09:57:51;9.93;;;3.20;;
70102;SDS011;57470;50.034;15.256;2022-11-10T10:00:21;10.93;;;2.90;;
70102;SDS011;57470;50.034;15.256;2022-11-10T10:02:50;8.57;;;2.72;;
70102;SDS011;57470;50.034;15.256;2022-11-10T10:08:15;8.37;;;2.97;;
70102;SDS011;57470;50.034;15.256;2022-11-10T10:21:33;6.80;;;2.43;;
70102;SDS011;57470;50.034;15.256;2022-11-10T10:24:13;7.65;;;2.55;;
70102;SDS011;57470;50.034;15.256;2022-11-10T10:26:43;8.47;;;3.20;;
70102;SDS011;57470;50.034;15.256;2022-11-10T10:29:14;6.40;;;2.17;;
70102;SDS011;57470;50.034;15.256;2022-11-10T10:31:49;8.93;;;2.47;;
70102;SDS011;57470;50.034;15.256;2022-11-10T10:34:17;7.95;;;3.05;;
70102;SDS011;57470;50.034;15.256;2022-11-10T10:36:49;7.75;;;2.53;;
70102;SDS011;57470;50.034;15.256;2022-11-10T10:39:16;10.40;;;3.37;;
70102;SDS011;57470;50.034;15.256;2022-11-10T10:42:21;8.13;;;2.38;;
70102;SDS011;57470;50.034;15.256;2022-11-10T10:45:16;11.70;;;3.95;;
70102;SDS011;57470;50.034;15.256;2022-11-10T10:47:47;10.10;;;4.67;;
70102;SDS011;57470;50.034;15.256;2022-11-10T10:50:21;7.07;;;2.03;;
70102;SDS011;57470;50.034;15.256;2022-11-10T10:55:36;8.50;;;3.38;;
70102;SDS011;57470;50.034;15.256;2022-11-10T10:58:16;7.38;;;2.47;;
70102;SDS011;57470;50.034;15.256;2022-11-10T11:00:51;9.63;;;2.63;;
70102;SDS011;57470;50.034;15.256;2022-11-10T11:03:27;8.57;;;2.90;;
70102;SDS011;57470;50.034;15.256;2022-11-10T11:06:20;7.32;;;2.35;;
70102;SDS011;57470;50.034;15.256;2022-11-10T11:11:39;6.75;;;2.78;;
70102;SDS011;57470;50.034;15.256;2022-11-10T11:14:25;5.90;;;2.33;;
70102;SDS011;57470;50.034;15.256;2022-11-10T11:16:56;7.95;;;2.30;;
70102;SDS011;57470;50.034;15.256;2022-11-10T11:19:42;6.63;;;2.13;;
70102;SDS011;57470;50.034;15.256;2022-11-10T11:22:27;13.43;;;2.57;;
70102;SDS011;57470;50.034;15.256;2022-11-10T11:25:19;6.20;;;2.17;;
70102;SDS011;57470;50.034;15.256;2022-11-10T11:27:58;5.72;;;1.95;;
70102;SDS011;57470;50.034;15.256;2022-11-10T11:30:30;8.18;;;2.28;;
70102;SDS011;57470;50.034;15.256;2022-11-10T11:33:11;5.47;;;1.57;;
70102;SDS011;57470;50.034;15.256;2022-11-10T11:44:39;6.88;;;2.22;;
70102;SDS011;57470;50.034;15.256;2022-11-10T11:50:39;4.47;;;0.82;;
70102;SDS011;57470;50.034;15.256;2022-11-10T11:53:22;7.40;;;1.77;;
70102;SDS011;57470;50.034;15.256;2022-11-10T12:01:06;5.07;;;1.47;;
70102;SDS011;57470;50.034;15.256;2022-11-10T12:07:28;6.38;;;1.58;;
70102;SDS011;57470;50.034;15.256;2022-11-10T12:10:20;4.97;;;1.75;;
70102;SDS011;57470;50.034;15.256;2022-11-10T12:15:45;3.03;;;1.02;;
70102;SDS011;57470;50.034;15.256;2022-11-10T12:18:35;3.13;;;0.70;;
70102;SDS011;57470;50.034;15.256;2022-11-10T12:26:56;4.72;;;1.17;;
70102;SDS011;57470;50.034;15.256;2022-11-10T12:29:41;4.63;;;0.82;;
70102;SDS011;57470;50.034;15.256;2022-11-10T12:34:42;5.65;;;1.00;;
70102;SDS011;57470;50.034;15.256;2022-11-10T12:37:20;5.13;;;0.93;;
70102;SDS011;57470;50.034;15.256;2022-11-10T12:39:53;4.85;;;1.52;;
70102;SDS011;57470;50.034;15.256;2022-11-10T12:42:26;5.45;;;0.77;;
70102;SDS011;57470;50.034;15.256;2022-11-10T12:44:57;3.37;;;0.60;;
70102;SDS011;57470;50.034;15.256;2022-11-10T12:47:37;3.63;;;0.73;;
70102;SDS011;57470;50.034;15.256;2022-11-10T12:52:46;2.67;;;0.57;;
70102;SDS011;57470;50.034;15.256;2022-11-10T12:55:17;5.95;;;0.90;;
70102;SDS011;57470;50.034;15.256;2022-11-10T12:57:51;3.97;;;1.00;;
70102;SDS011;57470;50.034;15.256;2022-11-10T13:02:45;6.10;;;0.70;;
70102;SDS011;57470;50.034;15.256;2022-11-10T13:07:40;4.07;;;0.93;;
70102;SDS011;57470;50.034;15.256;2022-11-10T13:10:29;6.88;;;1.05;;
70102;SDS011;57470;50.034;15.256;2022-11-10T13:18:01;3.88;;;0.82;;
70102;SDS011;57470;50.034;15.256;2022-11-10T13:34:25;3.33;;;0.93;;
70102;SDS011;57470;50.034;15.256;2022-11-10T13:36:51;2.60;;;0.63;;
70102;SDS011;57470;50.034;15.256;2022-11-10T13:41:47;3.00;;;0.70;;
70102;SDS011;57470;50.034;15.256;2022-11-10T13:44:32;3.53;;;0.67;;
70102;SDS011;57470;50.034;15.256;2022-11-10T13:52:16;5.35;;;1.00;;
70102;SDS011;57470;50.034;15.256;2022-11-10T13:59:52;7.40;;;2.15;;
70102;SDS011;57470;50.034;15.256;2022-11-10T14:05:01;7.95;;;1.65;;
70102;SDS011;57470;50.034;15.256;2022-11-10T14:07:29;6.53;;;1.77;;
70102;SDS011;57470;50.034;15.256;2022-11-10T14:10:02;8.80;;;1.37;;
70102;SDS011;57470;50.034;15.256;2022-11-10T14:12:36;6.88;;;1.77;;
70102;SDS011;57470;50.034;15.256;2022-11-10T14:15:16;9.68;;;1.67;;
70102;SDS011;57470;50.034;15.256;2022-11-10T14:17:51;5.47;;;1.60;;
70102;SDS011;57470;50.034;15.256;2022-11-10T14:23:04;8.87;;;1.10;;
70102;SDS011;57470;50.034;15.256;2022-11-10T14:25:39;4.75;;;1.10;;
70102;SDS011;57470;50.034;15.256;2022-11-10T14:30:53;7.85;;;1.02;;
70102;SDS011;57470;50.034;15.256;2022-11-10T14:33:19;4.30;;;1.15;;
70102;SDS011;57470;50.034;15.256;2022-11-10T14:35:47;3.93;;;1.30;;
70102;SDS011;57470;50.034;15.256;2022-11-10T14:38:19;5.32;;;1.40;;
70102;SDS011;57470;50.034;15.256;2022-11-10T14:40:47;8.00;;;2.42;;
70102;SDS011;57470;50.034;15.256;2022-11-10T14:45:58;6.25;;;2.58;;
70102;SDS011;57470;50.034;15.256;2022-11-10T14:48:26;11.10;;;2.93;;
70102;SDS011;57470;50.034;15.256;2022-11-10T14:50:53;9.55;;;3.63;;
70102;SDS011;57470;50.034;15.256;2022-11-10T14:53:22;16.20;;;5.60;;
70102;SDS011;57470;50.034;15.256;2022-11-10T14:55:57;9.00;;;3.13;;
70102;SDS011;57470;50.034;15.256;2022-11-10T14:58:29;7.23;;;2.70;;
70102;SDS011;57470;50.034;15.256;2022-11-10T15:00:59;14.60;;;2.28;;
70102;SDS011;57470;50.034;15.256;2022-11-10T15:06:02;4.68;;;1.48;;
70102;SDS011;57470;50.034;15.256;2022-11-10T15:08:32;5.13;;;1.85;;
70102;SDS011;57470;50.034;15.256;2022-11-10T15:10:58;4.27;;;1.07;;
70102;SDS011;57470;50.034;15.256;2022-11-10T15:19:19;4.18;;;1.10;;
70102;SDS011;57470;50.034;15.256;2022-11-10T15:21:46;4.10;;;1.30;;
70102;SDS011;57470;50.034;15.256;2022-11-10T15:24:11;3.75;;;0.80;;
70102;SDS011;57470;50.034;15.256;2022-11-10T15:26:39;7.47;;;1.97;;
70102;SDS011;57470;50.034;15.256;2022-11-10T15:29:05;4.70;;;1.52;;
70102;SDS011;57470;50.034;15.256;2022-11-10T15:31:40;4.45;;;1.58;;
70102;SDS011;57470;50.034;15.256;2022-11-10T15:37:09;4.17;;;1.27;;
70102;SDS011;57470;50.034;15.256;2022-11-10T15:39:35;4.93;;;1.58;;
70102;SDS011;57470;50.034;15.256;2022-11-10T15:42:06;9.60;;;1.70;;
70102;SDS011;57470;50.034;15.256;2022-11-10T15:44:43;5.00;;;1.80;;
70102;SDS011;57470;50.034;15.256;2022-11-10T15:47:09;4.68;;;1.27;;
70102;SDS011;57470;50.034;15.256;2022-11-10T15:49:36;3.67;;;1.20;;
70102;SDS011;57470;50.034;15.256;2022-11-10T15:52:10;4.35;;;1.60;;
70102;SDS011;57470;50.034;15.256;2022-11-10T15:54:39;4.67;;;1.50;;
70102;SDS011;57470;50.034;15.256;2022-11-10T15:57:12;5.25;;;1.55;;
70102;SDS011;57470;50.034;15.256;2022-11-10T15:59:39;5.60;;;1.63;;
70102;SDS011;57470;50.034;15.256;2022-11-10T16:02:23;5.53;;;1.23;;
70102;SDS011;57470;50.034;15.256;2022-11-10T16:04:50;5.95;;;2.15;;
70102;SDS011;57470;50.034;15.256;2022-11-10T16:07:19;4.63;;;1.25;;
70102;SDS011;57470;50.034;15.256;2022-11-10T16:09:44;4.20;;;1.05;;
70102;SDS011;57470;50.034;15.256;2022-11-10T16:12:19;4.23;;;0.93;;
70102;SDS011;57470;50.034;15.256;2022-11-10T16:14:47;3.72;;;0.93;;
70102;SDS011;57470;50.034;15.256;2022-11-10T16:17:15;4.45;;;1.42;;
70102;SDS011;57470;50.034;15.256;2022-11-10T16:19:41;3.40;;;0.73;;
70102;SDS011;57470;50.034;15.256;2022-11-10T16:22:08;6.05;;;1.80;;
70102;SDS011;57470;50.034;15.256;2022-11-10T16:24:34;4.85;;;1.42;;
70102;SDS011;57470;50.034;15.256;2022-11-10T16:27:00;6.83;;;1.17;;
70102;SDS011;57470;50.034;15.256;2022-11-10T16:29:25;5.90;;;1.30;;
70102;SDS011;57470;50.034;15.256;2022-11-10T16:31:51;8.20;;;3.37;;
70102;SDS011;57470;50.034;15.256;2022-11-10T16:34:16;14.43;;;4.67;;
70102;SDS011;57470;50.034;15.256;2022-11-10T16:36:41;12.68;;;4.95;;
70102;SDS011;57470;50.034;15.256;2022-11-10T16:39:12;21.37;;;9.03;;
70102;SDS011;57470;50.034;15.256;2022-11-10T16:41:38;24.00;;;8.65;;